Hauptseite
METAR-TAF:

METAR-TAF

Flughäfen :

Malé International Airport

Malé, Malediven

Breite: 04-12N, Länge: 073-32E, Höhe: 2 m

Beobachtung

Neuester Wetterbericht von vor 1 Stunde und 19 Minuten, um 07:00 UTC
Wind 15 kt aus West/Nordwest
Temperatur 31°C
Luftfeuchtigkeit 75%
Luftdruck 1009 hPa
Sichtweite 10 km oder mehr
Aufgelockert bewölkt in der Höhe von 1800 ft, Towering cumulus.

METAR: VRMM 180700Z 29015KT 9999 SCT018TCU 31/26 Q1009 NOSIG

Zeit: 13:19 (08:19 UTC)

Prognose

Neuester Wetterbericht von vor 3 Stunden und 19 Minuten, um 05:00 UTC
Gültige Prognose vom 18 um 06 UTC bis 19 um 12 UTC
Wind 14 kt aus West/Nordwest
Sichtweite 10 km oder mehr
Leicht bewölkt in der Höhe von 1800 ft
Zeitweise
vom 18 um 09 UTC bis 18 um 15 UTC
Sichtweite: 5000 m
Leicht bewölkt in der Höhe von 1700 ft, Kumulonimbus.
Regenschauer

TAF: VRMM 180500Z 1806/1912 29014KT 9999 FEW018 TEMPO 1809/1815 5000 -SHRA FEW017CB

Wetterbeobachtungen und Prognosen von mehr als 4000 Flughäfen (METAR und TAF Bericht).

Die verfügbaren Stationen werden durch gelbe und rote Markierungen auf der Karte dargestellt.

Führen Sie die Maus auf sie, um den Namen der Station zu sehen.

Darauf klicken, um die Beobachtung von Wetterbeobachtungen und Prognosen zu sehen.

Um die Karte zu ändern : klicken Sie auf den grünen Tasten mit einem schwarzen Kreuz Zum Vergrößern, auf den grünen Button mit einem Gedankenstrich zu verkleinern, oder auf die grünen Pfeile für benachbarte Karten.


METAR-TAF: